Time;durP1;ratioP1;P1;durP2;ratioP2;P2;SDS_P1;SDS_P2;PMS_P1;PMS_P2;Temp;Humidity;BMP_temperature;BMP_pressure;BME280_temperature;BME280_humidity;BME280_pressure;Samples;Min_cycle;Max_cycle;Signal;HPM_P1;HPM_P2
2024/01/20 00:01:02;;;;;;;;;;;;;;;;;;6003868;23;89337;-65
2024/01/20 00:03:28;;;;;;;;;;;;;;;;;;6003945;23;89508;-66
2024/01/20 00:05:53;;;;;;;;;;;;;;;;;;6003884;23;90146;-69
2024/01/20 00:08:18;;;;;;;;;;;;;;;;;;6001486;23;90376;-65
2024/01/20 00:10:43;;;;;;;;;;;;;;;;;;6007918;23;89449;-67
2024/01/20 00:13:08;;;;;;;;;;;;;;;;;;6003615;23;90397;-67
2024/01/20 00:15:34;;;;;;;;;;;;;;;;;;6004580;23;89403;-67
2024/01/20 00:17:59;;;;;;;;;;;;;;;;;;6004805;23;89870;-66
2024/01/20 00:20:24;;;;;;;;;;;;;;;;;;6001970;23;92025;-65
2024/01/20 00:22:50;;;;;;;;;;;;;;;;;;6003622;23;89581;-66
2024/01/20 00:25:15;;;;;;;;;;;;;;;;;;6003614;23;91297;-68
2024/01/20 00:27:40;;;;;;;;;;;;;;;;;;6004407;23;89248;-68
2024/01/20 00:30:06;;;;;;;;;;;;;;;;;;6004310;23;89530;-68
2024/01/20 00:32:31;;;;;;;;;;;;;;;;;;6008228;23;89668;-69
2024/01/20 00:34:56;;;;;;;;;;;;;;;;;;6005089;23;89004;-66
2024/01/20 00:37:21;;;;;;;;;;;;;;;;;;6004867;23;89687;-69
2024/01/20 00:39:46;;;;;;;;;;;;;;;;;;6005135;23;89318;-66
2024/01/20 00:42:12;;;;;;;;;;;;;;;;;;6002749;23;91229;-66
2024/01/20 00:44:39;;;;;;;;;;;;;;;;;;6004952;23;89699;-65
2024/01/20 00:47:04;;;;;;;;;;;;;;;;;;6004194;23;89621;-66
2024/01/20 00:49:29;;;;;;;;;;;;;;;;;;6004947;23;89455;-66
2024/01/20 00:51:54;;;;;;;;;;;;;;;;;;6005201;23;90236;-67
2024/01/20 00:54:20;;;;;;;;;;;;;;;;;;6008982;23;89333;-66
2024/01/20 00:56:45;;;;;;;;;;;;;;;;;;6005591;23;89789;-65
2024/01/20 00:59:10;;;;;;;;;;;;;;;;;;6027208;23;89354;-65
2024/01/20 01:01:35;;;;;;;;;;;;;;;;;;6004309;23;89534;-66
2024/01/20 01:04:00;;;;;;;;;;;;;;;;;;6005307;23;89669;-67
2024/01/20 01:06:26;;;;;;;;;;;;;;;;;;6005087;23;89713;-68
2024/01/20 01:08:51;;;;;;;;;;;;;;;;;;6004840;23;89611;-66
2024/01/20 01:11:16;;;;;;;;;;;;;;;;;;6005178;23;89663;-67
2024/01/20 01:13:41;;;;;;;;;;;;;;;;;;6004756;23;89279;-66
2024/01/20 01:16:07;;;;;;;;;;;;;;;;;;6008330;23;89393;-66
2024/01/20 01:18:32;;;;;;;;;;;;;;;;;;6004762;23;90253;-66
2024/01/20 01:20:58;;;;;;;;;;;;;;;;;;6004840;23;88926;-65
2024/01/20 01:23:23;;;;;;;;;;;;;;;;;;6004375;23;90676;-65
2024/01/20 01:25:49;;;;;;;;;;;;;;;;;;6004566;23;89606;-66
2024/01/20 01:28:14;;;;;;;;;;;;;;;;;;6005276;23;89404;-67
2024/01/20 01:30:39;;;;;;;;;;;;;;;;;;6002982;23;89662;-66
2024/01/20 01:33:04;;;;;;;;;;;;;;;;;;6003026;23;89559;-68
2024/01/20 01:35:29;;;;;;;;;;;;;;;;;;6006443;23;89433;-66
2024/01/20 01:37:55;;;;;;;;;;;;;;;;;;6000870;23;90890;-65
2024/01/20 01:40:20;;;;;;;;;;;;;;;;;;6002770;23;89202;-65
2024/01/20 01:42:45;;;;;;;;;;;;;;;;;;6003061;23;90898;-65
2024/01/20 01:45:10;;;;;;;;;;;;;;;;;;6001253;23;89560;-65
2024/01/20 01:47:36;;;;;;;;;;;;;;;;;;6002846;23;88977;-66
2024/01/20 01:50:02;;;;;;;;;;;;;;;;;;6002665;23;89839;-65
2024/01/20 01:52:28;;;;;;;;;;;;;;;;;;6002795;23;90188;-67
2024/01/20 01:54:54;;;;;;;;;;;;;;;;;;6002721;23;89438;-67
2024/01/20 01:57:20;;;;;;;;;;;;;;;;;;6006728;23;90216;-65
2024/01/20 01:59:45;;;;;;;;;;;;;;;;;;6002907;23;89428;-66
2024/01/20 02:02:11;;;;;;;;;;;;;;;;;;6002446;23;90027;-69
2024/01/20 02:04:36;;;;;;;;;;;;;;;;;;6002851;23;89400;-68
2024/01/20 02:07:02;;;;;;;;;;;;;;;;;;6002796;23;89406;-65
2024/01/20 02:09:27;;;;;;;;;;;;;;;;;;6002691;23;90603;-65
2024/01/20 02:11:53;;;;;;;;;;;;;;;;;;6002787;23;89751;-67
2024/01/20 02:14:19;;;;;;;;;;;;;;;;;;6003060;23;89493;-68
2024/01/20 02:16:45;;;;;;;;;;;;;;;;;;6003291;23;89869;-67
2024/01/20 02:19:10;;;;;;;;;;;;;;;;;;6006255;23;89431;-68
2024/01/20 02:21:37;;;;;;;;;;;;;;;;;;6002920;23;89680;-66
2024/01/20 02:24:04;;;;;;;;;;;;;;;;;;6002216;23;89331;-67
2024/01/20 02:26:29;;;;;;;;;;;;;;;;;;6002825;23;89666;-69
2024/01/20 02:28:54;;;;;;;;;;;;;;;;;;6003447;23;90303;-68
2024/01/20 02:31:20;;;;;;;;;;;;;;;;;;5954758;23;1154603;-66
2024/01/20 02:33:45;;;;;;;;;;;;;;;;;;6004703;23;89419;-68
2024/01/20 02:36:10;;;;;;;;;;;;;;;;;;6004877;23;89680;-69
2024/01/20 02:38:35;;;;;;;;;;;;;;;;;;6005306;23;89582;-66
2024/01/20 02:41:00;;;;;;;;;;;;;;;;;;6009066;23;89465;-66
2024/01/20 02:43:26;;;;;;;;;;;;;;;;;;6004884;23;89361;-65
2024/01/20 02:45:51;;;;;;;;;;;;;;;;;;6004329;23;89061;-65
2024/01/20 02:48:16;;;;;;;;;;;;;;;;;;6004676;23;89715;-68
2024/01/20 02:50:41;;;;;;;;;;;;;;;;;;6004271;23;89671;-66
2024/01/20 02:53:07;;;;;;;;;;;;;;;;;;6003291;23;90427;-67
2024/01/20 02:55:32;;;;;;;;;;;;;;;;;;6005288;23;89792;-66
2024/01/20 02:57:57;;;;;;;;;;;;;;;;;;6005202;23;90496;-66
2024/01/20 03:00:23;;;;;;;;;;;;;;;;;;6005009;23;89615;-66
2024/01/20 03:02:48;;;;;;;;;;;;;;;;;;6008036;23;90007;-68
2024/01/20 03:05:13;;;;;;;;;;;;;;;;;;6005481;23;88982;-65
2024/01/20 03:07:38;;;;;;;;;;;;;;;;;;6004785;23;88979;-66
2024/01/20 03:10:04;;;;;;;;;;;;;;;;;;6004967;23;89606;-65
2024/01/20 03:12:29;;;;;;;;;;;;;;;;;;6004519;23;88961;-68
2024/01/20 03:14:54;;;;;;;;;;;;;;;;;;6004840;23;89737;-65
2024/01/20 03:17:19;;;;;;;;;;;;;;;;;;6004167;23;90131;-66
2024/01/20 03:19:45;;;;;;;;;;;;;;;;;;6005325;23;89249;-65
2024/01/20 03:22:10;;;;;;;;;;;;;;;;;;6004574;23;90133;-65
2024/01/20 03:24:35;;;;;;;;;;;;;;;;;;6008344;23;89561;-66
2024/01/20 03:27:00;;;;;;;;;;;;;;;;;;6002984;23;90653;-67
2024/01/20 03:29:25;;;;;;;;;;;;;;;;;;6005114;23;89897;-68
2024/01/20 03:31:51;;;;;;;;;;;;;;;;;;6004170;23;89360;-66
2024/01/20 03:34:17;;;;;;;;;;;;;;;;;;6004879;23;89654;-65
2024/01/20 03:36:42;;;;;;;;;;;;;;;;;;6004416;23;89917;-65
2024/01/20 03:39:07;;;;;;;;;;;;;;;;;;6002855;23;90381;-65
2024/01/20 03:41:32;;;;;;;;;;;;;;;;;;6005047;23;89631;-65
2024/01/20 03:43:58;;;;;;;;;;;;;;;;;;6008515;23;89984;-66
2024/01/20 03:46:23;;;;;;;;;;;;;;;;;;6004746;23;89804;-66
2024/01/20 03:48:48;;;;;;;;;;;;;;;;;;6004520;23;89270;-68
2024/01/20 03:51:14;;;;;;;;;;;;;;;;;;6005266;23;88980;-65
2024/01/20 03:53:39;;;;;;;;;;;;;;;;;;6005216;23;90079;-66
2024/01/20 03:56:04;;;;;;;;;;;;;;;;;;6004979;23;89187;-65
2024/01/20 03:58:29;;;;;;;;;;;;;;;;;;6004945;23;88973;-66
2024/01/20 04:00:54;;;;;;;;;;;;;;;;;;6004503;23;89613;-66
2024/01/20 04:03:20;;;;;;;;;;;;;;;;;;6005252;23;89714;-65
2024/01/20 04:05:47;;;;;;;;;;;;;;;;;;6008516;23;89482;-66
2024/01/20 04:08:12;;;;;;;;;;;;;;;;;;6004764;23;89194;-67
2024/01/20 04:10:37;;;;;;;;;;;;;;;;;;6004811;23;88939;-66
2024/01/20 04:13:03;;;;;;;;;;;;;;;;;;6004336;23;89282;-66
2024/01/20 04:15:28;;;;;;;;;;;;;;;;;;6004014;23;89447;-66
2024/01/20 04:17:53;;;;;;;;;;;;;;;;;;6004492;23;89504;-65
2024/01/20 04:20:18;;;;;;;;;;;;;;;;;;6004865;23;89617;-67
2024/01/20 04:22:44;;;;;;;;;;;;;;;;;;6002622;23;92001;-69
2024/01/20 04:25:09;;;;;;;;;;;;;;;;;;6003888;23;89788;-69
2024/01/20 04:27:40;;;;;;;;;;;;;;;;;;6008135;23;89681;-68
2024/01/20 04:30:05;;;;;;;;;;;;;;;;;;6003656;23;89143;-68
2024/01/20 04:32:31;;;;;;;;;;;;;;;;;;6004191;23;89719;-68
2024/01/20 04:34:56;;;;;;;;;;;;;;;;;;6004146;23;89601;-66
2024/01/20 04:37:21;;;;;;;;;;;;;;;;;;6004551;23;89570;-68
2024/01/20 04:39:46;;;;;;;;;;;;;;;;;;6004587;23;89703;-65
2024/01/20 04:42:11;;;;;;;;;;;;;;;;;;6004183;23;89292;-68
2024/01/20 04:44:37;;;;;;;;;;;;;;;;;;6004180;23;89840;-66
2024/01/20 04:47:02;;;;;;;;;;;;;;;;;;6003799;23;89770;-67
2024/01/20 04:49:27;;;;;;;;;;;;;;;;;;6006923;23;89156;-66
2024/01/20 04:51:53;;;;;;;;;;;;;;;;;;6003529;23;90614;-65
2024/01/20 04:54:18;;;;;;;;;;;;;;;;;;6004070;23;90347;-65
2024/01/20 04:56:44;;;;;;;;;;;;;;;;;;6004160;23;89419;-66
2024/01/20 04:59:09;;;;;;;;;;;;;;;;;;6004506;23;90222;-67
2024/01/20 05:01:34;;;;;;;;;;;;;;;;;;6002252;23;90403;-65
2024/01/20 05:03:59;;;;;;;;;;;;;;;;;;6002211;23;89146;-66
2024/01/20 05:06:24;;;;;;;;;;;;;;;;;;6004789;23;89388;-66
2024/01/20 05:08:50;;;;;;;;;;;;;;;;;;6004388;23;89719;-69
2024/01/20 05:11:15;;;;;;;;;;;;;;;;;;6005751;23;90079;-65
2024/01/20 05:13:40;;;;;;;;;;;;;;;;;;6004206;23;89274;-67
2024/01/20 05:16:05;;;;;;;;;;;;;;;;;;6003557;23;89575;-65
2024/01/20 05:18:31;;;;;;;;;;;;;;;;;;6005385;23;89108;-68
2024/01/20 05:20:56;;;;;;;;;;;;;;;;;;6005286;23;89251;-66
2024/01/20 05:23:21;;;;;;;;;;;;;;;;;;6003640;23;90261;-65
2024/01/20 05:25:46;;;;;;;;;;;;;;;;;;6005637;23;89658;-65
2024/01/20 05:28:11;;;;;;;;;;;;;;;;;;6005157;23;88957;-65
2024/01/20 05:30:36;;;;;;;;;;;;;;;;;;6005084;23;89410;-66
2024/01/20 05:33:02;;;;;;;;;;;;;;;;;;6008218;23;89485;-65
2024/01/20 05:35:27;;;;;;;;;;;;;;;;;;6005345;23;89389;-65
2024/01/20 05:37:52;;;;;;;;;;;;;;;;;;6004963;23;89973;-66
2024/01/20 05:40:17;;;;;;;;;;;;;;;;;;6005418;23;89466;-67
2024/01/20 05:42:42;;;;;;;;;;;;;;;;;;6005465;23;89170;-67
2024/01/20 05:45:09;;;;;;;;;;;;;;;;;;6003536;23;89734;-74
2024/01/20 05:47:37;;;;;;;;;;;;;;;;;;6002721;23;89793;-69
2024/01/20 05:50:03;;;;;;;;;;;;;;;;;;6002869;23;89568;-67
2024/01/20 05:52:29;;;;;;;;;;;;;;;;;;6007052;23;92062;-70
2024/01/20 05:54:54;;;;;;;;;;;;;;;;;;6004145;23;88862;-68
2024/01/20 05:57:19;;;;;;;;;;;;;;;;;;6003841;23;89672;-67
2024/01/20 05:59:45;;;;;;;;;;;;;;;;;;6003006;23;89518;-66
2024/01/20 06:02:10;;;;;;;;;;;;;;;;;;6002906;23;89997;-65
2024/01/20 06:04:36;;;;;;;;;;;;;;;;;;6004130;23;89632;-66
2024/01/20 06:07:01;;;;;;;;;;;;;;;;;;6003027;23;89222;-69
2024/01/20 06:09:26;;;;;;;;;;;;;;;;;;6002814;23;89303;-69
2024/01/20 06:11:52;;;;;;;;;;;;;;;;;;6002511;23;89703;-69
2024/01/20 06:14:17;;;;;;;;;;;;;;;;;;6007493;23;89757;-65
2024/01/20 06:16:42;;;;;;;;;;;;;;;;;;6003925;23;89640;-68
2024/01/20 06:19:08;;;;;;;;;;;;;;;;;;6003666;23;90695;-67
2024/01/20 06:21:33;;;;;;;;;;;;;;;;;;6026365;23;89052;-68
2024/01/20 06:23:58;;;;;;;;;;;;;;;;;;6001487;23;91228;-70
2024/01/20 06:26:24;;;;;;;;;;;;;;;;;;6002740;23;89575;-68
2024/01/20 06:28:49;;;;;;;;;;;;;;;;;;6003605;23;89625;-69
2024/01/20 06:31:21;;;;;;;;;;;;;;;;;;6002967;23;90363;-69
2024/01/20 06:33:47;;;;;;;;;;;;;;;;;;6003729;23;89382;-66
2024/01/20 06:36:13;;;;;;;;;;;;;;;;;;6006453;23;89972;-68
2024/01/20 06:38:38;;;;;;;;;;;;;;;;;;6003906;23;89410;-69
2024/01/20 06:41:03;;;;;;;;;;;;;;;;;;6003449;23;88986;-68
2024/01/20 06:43:28;;;;;;;;;;;;;;;;;;6004354;23;89639;-69
2024/01/20 06:45:54;;;;;;;;;;;;;;;;;;6002345;23;89267;-66
2024/01/20 06:48:19;;;;;;;;;;;;;;;;;;6004200;23;89389;-68
2024/01/20 06:50:44;;;;;;;;;;;;;;;;;;6003218;23;89977;-67
2024/01/20 06:53:10;;;;;;;;;;;;;;;;;;6003577;23;89364;-67
2024/01/20 06:55:36;;;;;;;;;;;;;;;;;;6003871;23;89626;-67
2024/01/20 06:58:01;;;;;;;;;;;;;;;;;;6007316;23;90198;-67
2024/01/20 07:00:26;;;;;;;;;;;;;;;;;;6003370;23;90174;-72
2024/01/20 07:02:51;;;;;;;;;;;;;;;;;;6003890;23;89658;-68
2024/01/20 07:05:17;;;;;;;;;;;;;;;;;;6004528;23;90270;-66
2024/01/20 07:07:42;;;;;;;;;;;;;;;;;;6003645;23;89420;-67
2024/01/20 07:10:08;;;;;;;;;;;;;;;;;;6001586;23;92224;-66
2024/01/20 07:12:34;;;;;;;;;;;;;;;;;;6002793;23;90412;-71
2024/01/20 07:14:59;;;;;;;;;;;;;;;;;;6002488;23;89430;-68
2024/01/20 07:17:24;;;;;;;;;;;;;;;;;;6003678;23;90527;-66
2024/01/20 07:19:50;;;;;;;;;;;;;;;;;;6007484;23;89371;-66
2024/01/20 07:22:15;;;;;;;;;;;;;;;;;;6003735;23;90691;-69
2024/01/20 07:24:40;;;;;;;;;;;;;;;;;;6002957;23;90629;-66
2024/01/20 07:27:05;;;;;;;;;;;;;;;;;;6001186;23;90941;-70
2024/01/20 07:29:30;;;;;;;;;;;;;;;;;;6003732;23;90297;-68
2024/01/20 07:31:56;;;;;;;;;;;;;;;;;;6003587;23;90172;-68
2024/01/20 07:34:21;;;;;;;;;;;;;;;;;;6003191;23;89069;-73
2024/01/20 07:36:46;;;;;;;;;;;;;;;;;;6003466;23;89561;-73
2024/01/20 07:39:11;;;;;;;;;;;;;;;;;;6006412;23;89582;-71
2024/01/20 07:41:37;;;;;;;;;;;;;;;;;;6002995;23;88950;-71
2024/01/20 07:44:02;;;;;;;;;;;;;;;;;;6003056;23;89292;-71
2024/01/20 07:46:27;;;;;;;;;;;;;;;;;;6003449;23;89560;-70
2024/01/20 07:48:52;;;;;;;;;;;;;;;;;;6002756;23;89685;-71
2024/01/20 07:51:17;;;;;;;;;;;;;;;;;;6003153;23;89388;-68
2024/01/20 07:53:43;;;;;;;;;;;;;;;;;;6003516;23;89405;-70
2024/01/20 07:56:10;;;;;;;;;;;;;;;;;;6001412;23;91075;-68
2024/01/20 07:58:36;;;;;;;;;;;;;;;;;;6003167;23;89707;-70
2024/01/20 08:01:01;;;;;;;;;;;;;;;;;;6006800;23;89294;-72
2024/01/20 08:03:26;;;;;;;;;;;;;;;;;;6003154;23;90092;-72
2024/01/20 08:05:52;;;;;;;;;;;;;;;;;;6002565;23;89732;-72
2024/01/20 08:08:17;;;;;;;;;;;;;;;;;;6003528;23;90325;-70
2024/01/20 08:10:42;;;;;;;;;;;;;;;;;;6003404;23;89329;-71
2024/01/20 08:13:08;;;;;;;;;;;;;;;;;;6003348;23;89144;-70
2024/01/20 08:15:33;;;;;;;;;;;;;;;;;;6003490;23;89585;-71
2024/01/20 08:17:58;;;;;;;;;;;;;;;;;;6002901;23;89204;-72
2024/01/20 08:20:24;;;;;;;;;;;;;;;;;;6003590;23;89980;-69
2024/01/20 08:22:49;;;;;;;;;;;;;;;;;;6006671;23;89467;-71
2024/01/20 08:25:15;;;;;;;;;;;;;;;;;;6003526;23;89542;-70
2024/01/20 08:27:40;;;;;;;;;;;;;;;;;;6002601;23;89704;-67
2024/01/20 08:30:06;;;;;;;;;;;;;;;;;;6002315;23;89594;-70
2024/01/20 08:32:31;;;;;;;;;;;;;;;;;;6002606;23;88924;-69
2024/01/20 08:34:56;;;;;;;;;;;;;;;;;;6002993;23;90716;-66
2024/01/20 08:37:21;;;;;;;;;;;;;;;;;;6003847;23;89449;-67
2024/01/20 08:39:48;;;;;;;;;;;;;;;;;;6002876;23;89006;-68
2024/01/20 08:42:13;;;;;;;;;;;;;;;;;;6002558;23;89677;-68
2024/01/20 08:44:39;;;;;;;;;;;;;;;;;;6007519;23;89377;-71
2024/01/20 08:47:04;;;;;;;;;;;;;;;;;;6002967;23;89666;-66
2024/01/20 08:49:29;;;;;;;;;;;;;;;;;;6004041;23;89656;-68
2024/01/20 08:51:54;;;;;;;;;;;;;;;;;;6003634;23;88981;-69
2024/01/20 08:54:20;;;;;;;;;;;;;;;;;;6004810;23;89802;-67
2024/01/20 08:56:45;;;;;;;;;;;;;;;;;;6003835;23;89386;-67
2024/01/20 08:59:10;;;;;;;;;;;;;;;;;;6004065;23;89422;-68
2024/01/20 09:01:35;;;;;;;;;;;;;;;;;;6004117;23;89723;-68
2024/01/20 09:04:01;;;;;;;;;;;;;;;;;;6002805;23;89519;-68
2024/01/20 09:06:26;;;;;;;;;;;;;;;;;;6004528;23;89145;-67
2024/01/20 09:08:52;;;;;;;;;;;;;;;;;;6003520;23;90596;-69
2024/01/20 09:11:17;;;;;;;;;;;;;;;;;;6003092;23;90118;-67
2024/01/20 09:13:42;;;;;;;;;;;;;;;;;;6004218;23;90433;-67
2024/01/20 09:16:09;;;;;;;;;;;;;;;;;;6003307;23;89853;-67
2024/01/20 09:18:34;;;;;;;;;;;;;;;;;;6003857;23;89430;-67
2024/01/20 09:20:59;;;;;;;;;;;;;;;;;;6003345;23;90420;-67
2024/01/20 09:23:24;;;;;;;;;;;;;;;;;;6003308;23;89786;-67
2024/01/20 09:25:49;;;;;;;;;;;;;;;;;;6003983;23;89511;-71
2024/01/20 09:28:15;;;;;;;;;;;;;;;;;;6008111;23;89650;-66
2024/01/20 09:30:40;;;;;;;;;;;;;;;;;;6003230;23;89280;-66
2024/01/20 09:33:05;;;;;;;;;;;;;;;;;;6003148;23;89634;-67
2024/01/20 09:35:31;;;;;;;;;;;;;;;;;;6004134;23;89185;-66
2024/01/20 09:37:57;;;;;;;;;;;;;;;;;;6003225;23;89936;-67
2024/01/20 09:40:22;;;;;;;;;;;;;;;;;;6003435;23;89718;-67
2024/01/20 09:42:48;;;;;;;;;;;;;;;;;;6002843;23;89649;-66
2024/01/20 09:45:13;;;;;;;;;;;;;;;;;;6002646;23;89319;-67
2024/01/20 09:47:39;;;;;;;;;;;;;;;;;;6006735;23;89059;-66
2024/01/20 09:50:04;;;;;;;;;;;;;;;;;;6003988;23;89454;-67
2024/01/20 09:52:31;;;;;;;;;;;;;;;;;;6003783;23;89939;-68
2024/01/20 09:54:56;;;;;;;;;;;;;;;;;;6003177;23;89381;-67
2024/01/20 09:57:23;;;;;;;;;;;;;;;;;;6004783;23;90028;-68
2024/01/20 09:59:48;;;;;;;;;;;;;;;;;;6000981;23;91284;-69
2024/01/20 10:02:15;;;;;;;;;;;;;;;;;;6003138;23;89404;-66
2024/01/20 10:04:42;;;;;;;;;;;;;;;;;;6003238;23;89351;-72
2024/01/20 10:07:07;;;;;;;;;;;;;;;;;;6003051;23;89729;-64
2024/01/20 10:09:32;;;;;;;;;;;;;;;;;;6006445;23;89650;-67
2024/01/20 10:11:59;;;;;;;;;;;;;;;;;;6001437;23;90870;-66
2024/01/20 10:14:24;;;;;;;;;;;;;;;;;;6003187;23;90095;-68
2024/01/20 10:16:50;;;;;;;;;;;;;;;;;;6001964;23;90546;-67
2024/01/20 10:19:15;;;;;;;;;;;;;;;;;;6000631;23;92190;-66
2024/01/20 10:21:41;;;;;;;;;;;;;;;;;;6004103;23;89612;-68
2024/01/20 10:24:07;;;;;;;;;;;;;;;;;;6002720;23;89032;-66
2024/01/20 10:26:40;;;;;;;;;;;;;;;;;;6003699;23;90642;-67
2024/01/20 10:29:05;;;;;;;;;;;;;;;;;;6002400;23;89758;-67
2024/01/20 10:31:31;;;;;;;;;;;;;;;;;;6006885;23;89559;-66
2024/01/20 10:33:56;;;;;;;;;;;;;;;;;;6003466;23;89313;-68
2024/01/20 10:36:22;;;;;;;;;;;;;;;;;;6004203;23;88940;-67
2024/01/20 10:38:49;;;;;;;;;;;;;;;;;;6003612;23;90129;-67
2024/01/20 10:41:16;;;;;;;;;;;;;;;;;;6003408;23;89683;-68
2024/01/20 10:43:45;;;;;;;;;;;;;;;;;;6004013;23;88947;-67
2024/01/20 10:46:26;;;;;;;;;;;;;;;;;;6002669;23;90326;-67
2024/01/20 10:48:53;;;;;;;;;;;;;;;;;;6002551;23;90194;-67
2024/01/20 10:51:22;;;;;;;;;;;;;;;;;;6002241;23;89494;-68
2024/01/20 10:53:48;;;;;;;;;;;;;;;;;;6004697;23;89561;-68
2024/01/20 10:56:13;;;;;;;;;;;;;;;;;;6003183;23;89038;-69
2024/01/20 10:58:43;;;;;;;;;;;;;;;;;;6004833;23;89498;-68
2024/01/20 11:01:09;;;;;;;;;;;;;;;;;;6004658;23;89745;-69
2024/01/20 11:03:34;;;;;;;;;;;;;;;;;;6004629;23;88906;-67
2024/01/20 11:05:59;;;;;;;;;;;;;;;;;;6002726;23;91532;-67
2024/01/20 11:08:25;;;;;;;;;;;;;;;;;;6004816;23;88996;-67
2024/01/20 11:10:51;;;;;;;;;;;;;;;;;;6004917;23;89424;-68
2024/01/20 11:13:16;;;;;;;;;;;;;;;;;;6004650;23;90580;-66
2024/01/20 11:15:47;;;;;;;;;;;;;;;;;;6007529;23;89659;-66
2024/01/20 11:18:17;;;;;;;;;;;;;;;;;;6004298;23;89683;-67
2024/01/20 11:20:52;;;;;;;;;;;;;;;;;;6003284;23;90799;-67
2024/01/20 11:23:17;;;;;;;;;;;;;;;;;;6003074;23;89281;-69
2024/01/20 11:25:46;;;;;;;;;;;;;;;;;;6004068;23;89569;-66
2024/01/20 11:28:21;;;;;;;;;;;;;;;;;;6002492;23;90476;-68
2024/01/20 11:30:47;;;;;;;;;;;;;;;;;;6002950;23;88995;-67
2024/01/20 11:33:13;;;;;;;;;;;;;;;;;;6003913;23;89754;-68
2024/01/20 11:35:38;;;;;;;;;;;;;;;;;;6004707;23;89366;-68
2024/01/20 11:38:04;;;;;;;;;;;;;;;;;;6007555;23;89496;-67
2024/01/20 11:40:29;;;;;;;;;;;;;;;;;;6003907;23;89325;-67
2024/01/20 11:43:03;;;;;;;;;;;;;;;;;;6003828;23;89392;-72
2024/01/20 11:45:28;;;;;;;;;;;;;;;;;;6005595;23;88963;-72
2024/01/20 11:47:53;;;;;;;;;;;;;;;;;;6006811;23;89762;-72
2024/01/20 11:50:19;;;;;;;;;;;;;;;;;;6003665;23;89667;-72
2024/01/20 11:52:44;;;;;;;;;;;;;;;;;;6002655;23;89845;-73
2024/01/20 11:55:09;;;;;;;;;;;;;;;;;;6003293;23;90361;-73
2024/01/20 11:57:35;;;;;;;;;;;;;;;;;;6006645;23;89030;-73
2024/01/20 12:00:00;;;;;;;;;;;;;;;;;;6003929;23;89526;-73
2024/01/20 12:02:27;;;;;;;;;;;;;;;;;;6002871;23;89602;-72
2024/01/20 12:04:54;;;;;;;;;;;;;;;;;;6004309;23;89922;-73
2024/01/20 12:07:19;;;;;;;;;;;;;;;;;;6003808;23;89212;-73
2024/01/20 12:09:45;;;;;;;;;;;;;;;;;;6003183;23;88943;-73
2024/01/20 12:12:11;;;;;;;;;;;;;;;;;;6001253;23;92287;-71
2024/01/20 12:14:36;;;;;;;;;;;;;;;;;;6003200;23;89396;-72
2024/01/20 12:17:02;;;;;;;;;;;;;;;;;;6002823;23;89593;-71
2024/01/20 12:19:27;;;;;;;;;;;;;;;;;;6005710;23;89599;-72
2024/01/20 12:21:53;;;;;;;;;;;;;;;;;;6001507;23;89282;-70
2024/01/20 12:24:18;;;;;;;;;;;;;;;;;;6004661;23;89646;-72
2024/01/20 12:26:43;;;;;;;;;;;;;;;;;;5982924;23;89812;-71
2024/01/20 12:29:08;;;;;;;;;;;;;;;;;;6032842;23;88939;-71
2024/01/20 12:31:34;;;;;;;;;;;;;;;;;;6031923;23;89660;-71
2024/01/20 12:33:59;;;;;;;;;;;;;;;;;;6032281;23;89857;-71
2024/01/20 12:36:25;;;;;;;;;;;;;;;;;;6031275;23;89700;-71
2024/01/20 12:38:50;;;;;;;;;;;;;;;;;;6033317;23;89677;-71
2024/01/20 12:41:16;;;;;;;;;;;;;;;;;;6034491;23;89460;-72
2024/01/20 12:43:44;;;;;;;;;;;;;;;;;;6032233;23;91232;-71
2024/01/20 12:46:10;;;;;;;;;;;;;;;;;;6032067;23;89462;-71
2024/01/20 12:48:35;;;;;;;;;;;;;;;;;;6032251;23;89256;-71
2024/01/20 12:51:00;;;;;;;;;;;;;;;;;;6032552;23;89629;-71
2024/01/20 12:53:26;;;;;;;;;;;;;;;;;;6031876;23;89988;-71
2024/01/20 12:55:51;;;;;;;;;;;;;;;;;;6031056;23;89348;-71
2024/01/20 12:58:16;;;;;;;;;;;;;;;;;;6030010;23;92307;-71
2024/01/20 13:00:42;;;;;;;;;;;;;;;;;;6032518;23;89419;-71
2024/01/20 13:03:07;;;;;;;;;;;;;;;;;;6036334;23;89350;-71
2024/01/20 13:05:32;;;;;;;;;;;;;;;;;;6034145;23;89726;-72
2024/01/20 13:07:57;;;;;;;;;;;;;;;;;;6034257;23;89704;-72
2024/01/20 13:10:23;;;;;;;;;;;;;;;;;;6030318;23;91378;-71
2024/01/20 13:12:48;;;;;;;;;;;;;;;;;;6032623;23;89411;-71
2024/01/20 13:15:13;;;;;;;;;;;;;;;;;;6032192;23;88962;-71
2024/01/20 13:17:39;;;;;;;;;;;;;;;;;;6030215;23;89657;-71
2024/01/20 13:20:04;;;;;;;;;;;;;;;;;;6031195;23;89658;-71
2024/01/20 13:22:29;;;;;;;;;;;;;;;;;;6031919;23;89925;-71
2024/01/20 13:24:57;;;;;;;;;;;;;;;;;;6034409;23;89709;-72
2024/01/20 13:27:23;;;;;;;;;;;;;;;;;;6030488;23;90599;-71
2024/01/20 13:29:48;;;;;;;;;;;;;;;;;;6031882;23;89230;-72
2024/01/20 13:32:14;;;;;;;;;;;;;;;;;;6029770;23;92194;-71
2024/01/20 13:34:39;;;;;;;;;;;;;;;;;;6031914;23;89211;-71
2024/01/20 13:37:05;;;;;;;;;;;;;;;;;;6032828;23;89499;-71
2024/01/20 13:39:30;;;;;;;;;;;;;;;;;;6031852;23;89654;-73
2024/01/20 13:41:55;;;;;;;;;;;;;;;;;;6032385;23;89711;-72
2024/01/20 13:44:21;;;;;;;;;;;;;;;;;;6032166;23;89812;-72
2024/01/20 13:46:46;;;;;;;;;;;;;;;;;;6036055;23;89296;-72
2024/01/20 13:49:11;;;;;;;;;;;;;;;;;;6032325;23;89541;-72
2024/01/20 13:51:37;;;;;;;;;;;;;;;;;;6031698;23;89184;-72
2024/01/20 13:54:02;;;;;;;;;;;;;;;;;;6032119;23;89023;-71
2024/01/20 13:56:27;;;;;;;;;;;;;;;;;;6032463;23;89669;-71
2024/01/20 13:58:53;;;;;;;;;;;;;;;;;;6032443;23;89635;-72
2024/01/20 14:01:22;;;;;;;;;;;;;;;;;;6032841;23;89567;-71
2024/01/20 14:03:48;;;;;;;;;;;;;;;;;;6031870;23;91339;-72
2024/01/20 14:06:13;;;;;;;;;;;;;;;;;;6035712;23;89335;-73
2024/01/20 14:08:40;;;;;;;;;;;;;;;;;;6029804;23;92458;-71
2024/01/20 14:11:05;;;;;;;;;;;;;;;;;;6032269;23;89626;-71
2024/01/20 14:13:31;;;;;;;;;;;;;;;;;;6031204;23;89711;-72
2024/01/20 14:15:56;;;;;;;;;;;;;;;;;;6032509;23;90427;-72
2024/01/20 14:18:21;;;;;;;;;;;;;;;;;;6032486;23;89459;-72
2024/01/20 14:20:46;;;;;;;;;;;;;;;;;;6032247;23;88962;-71
2024/01/20 14:23:12;;;;;;;;;;;;;;;;;;6031600;23;89580;-70
2024/01/20 14:25:37;;;;;;;;;;;;;;;;;;6028760;23;89478;-72
2024/01/20 14:28:03;;;;;;;;;;;;;;;;;;6035356;23;89599;-69
2024/01/20 14:30:29;;;;;;;;;;;;;;;;;;6031179;23;90111;-71
2024/01/20 14:32:54;;;;;;;;;;;;;;;;;;6032002;23;89347;-69
2024/01/20 14:35:20;;;;;;;;;;;;;;;;;;6032435;23;89606;-71
2024/01/20 14:37:45;;;;;;;;;;;;;;;;;;6029885;23;91199;-68
2024/01/20 14:40:10;;;;;;;;;;;;;;;;;;6032815;23;89270;-69
2024/01/20 14:42:35;;;;;;;;;;;;;;;;;;6031825;23;89574;-71
2024/01/20 14:45:01;;;;;;;;;;;;;;;;;;6033819;23;89461;-71
2024/01/20 14:47:27;;;;;;;;;;;;;;;;;;6029790;23;89035;-72
2024/01/20 14:49:52;;;;;;;;;;;;;;;;;;6035835;23;89053;-72
2024/01/20 14:52:17;;;;;;;;;;;;;;;;;;6032278;23;89194;-71
2024/01/20 14:54:42;;;;;;;;;;;;;;;;;;6030812;23;89769;-71
2024/01/20 14:57:08;;;;;;;;;;;;;;;;;;6030309;23;89300;-71
2024/01/20 14:59:33;;;;;;;;;;;;;;;;;;6030175;23;89345;-71
2024/01/20 15:01:58;;;;;;;;;;;;;;;;;;6032006;23;89476;-71
2024/01/20 15:04:24;;;;;;;;;;;;;;;;;;6029629;23;92173;-70
2024/01/20 15:06:49;;;;;;;;;;;;;;;;;;6032830;23;89572;-71
2024/01/20 15:09:14;;;;;;;;;;;;;;;;;;6031870;23;90753;-70
2024/01/20 15:11:39;;;;;;;;;;;;;;;;;;6035613;23;90120;-70
2024/01/20 15:14:07;;;;;;;;;;;;;;;;;;6054766;23;89692;-71
2024/01/20 15:16:33;;;;;;;;;;;;;;;;;;6031591;23;90483;-71
2024/01/20 15:18:58;;;;;;;;;;;;;;;;;;6031961;23;89935;-71
2024/01/20 15:21:23;;;;;;;;;;;;;;;;;;6032133;23;89802;-71
2024/01/20 15:23:49;;;;;;;;;;;;;;;;;;6031518;23;90558;-71
2024/01/20 15:26:15;;;;;;;;;;;;;;;;;;6031050;23;89512;-71
2024/01/20 15:28:40;;;;;;;;;;;;;;;;;;6030609;23;89999;-70
2024/01/20 15:31:05;;;;;;;;;;;;;;;;;;6031642;23;89668;-70
2024/01/20 15:33:31;;;;;;;;;;;;;;;;;;6035210;23;89775;-70
2024/01/20 15:35:56;;;;;;;;;;;;;;;;;;6031597;23;89765;-70
2024/01/20 15:38:21;;;;;;;;;;;;;;;;;;6032245;23;89174;-70
2024/01/20 15:40:47;;;;;;;;;;;;;;;;;;6031803;23;89742;-70
2024/01/20 15:43:12;;;;;;;;;;;;;;;;;;6032364;23;89190;-70
2024/01/20 15:45:37;;;;;;;;;;;;;;;;;;6030250;23;89629;-70
2024/01/20 15:48:04;;;;;;;;;;;;;;;;;;6030729;23;90118;-70
2024/01/20 15:50:30;;;;;;;;;;;;;;;;;;6030175;23;89782;-71
2024/01/20 15:52:55;;;;;;;;;;;;;;;;;;6030362;23;89670;-71
2024/01/20 15:55:20;;;;;;;;;;;;;;;;;;6033620;23;89366;-70
2024/01/20 15:57:46;;;;;;;;;;;;;;;;;;6053401;23;89481;-70
2024/01/20 16:00:11;;;;;;;;;;;;;;;;;;6031485;23;89480;-70
2024/01/20 16:02:37;;;;;;;;;;;;;;;;;;6030787;23;89915;-70
2024/01/20 16:05:03;;;;;;;;;;;;;;;;;;6031380;23;89474;-71
2024/01/20 16:07:28;;;;;;;;;;;;;;;;;;6031383;23;90578;-70
2024/01/20 16:09:53;;;;;;;;;;;;;;;;;;6030942;23;90099;-71
2024/01/20 16:12:19;;;;;;;;;;;;;;;;;;6031464;23;89494;-70
2024/01/20 16:14:44;;;;;;;;;;;;;;;;;;6034307;23;90796;-69
2024/01/20 16:17:09;;;;;;;;;;;;;;;;;;6032030;23;89736;-70
2024/01/20 16:19:35;;;;;;;;;;;;;;;;;;6029405;23;89861;-70
2024/01/20 16:22:02;;;;;;;;;;;;;;;;;;6033294;23;89896;-70
2024/01/20 16:24:27;;;;;;;;;;;;;;;;;;6032247;23;89648;-71
2024/01/20 16:26:52;;;;;;;;;;;;;;;;;;6032157;23;89614;-70
2024/01/20 16:29:19;;;;;;;;;;;;;;;;;;6031152;23;89412;-69
2024/01/20 16:31:44;;;;;;;;;;;;;;;;;;6030573;23;89878;-70
2024/01/20 16:34:10;;;;;;;;;;;;;;;;;;6031200;23;90529;-70